createdAt,value
2022-12-18T08:51:13.911Z,52.63
2022-12-18T08:53:42.415Z,65.63
2022-12-18T08:56:10.643Z,53.13
2022-12-18T08:58:38.853Z,59.95
2022-12-18T09:01:07.828Z,47.83
2022-12-18T09:03:36.053Z,47.75
2022-12-18T09:06:04.225Z,42.53
2022-12-18T09:08:33.924Z,57.17
2022-12-18T09:11:01.839Z,49.33
2022-12-18T09:13:29.765Z,66.13
2022-12-18T09:15:57.905Z,53.70
2022-12-18T09:18:25.890Z,58.70
2022-12-18T09:20:54.145Z,58.55
2022-12-18T09:23:22.345Z,49.28
2022-12-18T09:25:51.580Z,48.03
2022-12-18T09:28:20.285Z,41.83
2022-12-18T09:30:50.231Z,43.92
2022-12-18T09:33:19.504Z,51.25
2022-12-18T09:35:47.951Z,43.10
2022-12-18T09:38:17.594Z,43.17
2022-12-18T09:40:46.478Z,52.08
2022-12-18T09:43:18.131Z,43.65
2022-12-18T09:45:46.838Z,49.55
2022-12-18T09:48:17.877Z,47.33
2022-12-18T09:50:46.187Z,49.33
2022-12-18T09:53:17.286Z,52.15
2022-12-18T09:55:47.096Z,57.40
2022-12-18T09:58:19.153Z,39.72
2022-12-18T10:00:47.342Z,55.13
2022-12-18T10:03:16.829Z,50.25
2022-12-18T10:05:48.500Z,49.53
2022-12-18T10:08:20.742Z,51.33
2022-12-18T10:10:50.886Z,57.25
2022-12-18T10:13:25.358Z,50.97
2022-12-18T10:16:11.137Z,44.67
2022-12-18T10:18:46.523Z,45.90
2022-12-18T10:21:18.111Z,51.22
2022-12-18T10:23:50.319Z,51.77
2022-12-18T10:26:18.367Z,48.83
2022-12-18T10:28:47.622Z,44.22
2022-12-18T10:31:18.181Z,44.03
2022-12-18T10:33:46.402Z,49.55
2022-12-18T10:36:14.590Z,44.72
2022-12-18T10:38:43.252Z,46.20
2022-12-18T10:41:27.933Z,46.72
2022-12-18T10:44:12.296Z,45.28
2022-12-18T10:49:20.311Z,49.28
2022-12-18T10:51:48.647Z,55.67
2022-12-18T10:54:18.358Z,74.63
2022-12-18T10:56:46.462Z,71.97
2022-12-18T10:59:16.272Z,69.85
2022-12-18T11:01:48.834Z,65.57
2022-12-18T11:04:20.725Z,57.95
2022-12-18T11:06:59.352Z,55.60
2022-12-18T11:09:28.810Z,65.88
2022-12-18T11:11:57.776Z,55.35
2022-12-18T11:14:27.141Z,58.88
2022-12-18T11:19:45.924Z,55.90
2022-12-18T11:22:21.716Z,54.83
2022-12-18T11:25:29.657Z,56.30
2022-12-18T11:27:43.160Z,54.15
2022-12-18T11:30:11.864Z,50.53
2022-12-18T11:32:40.898Z,46.00
2022-12-18T11:35:16.183Z,55.22
2022-12-18T11:37:45.601Z,48.70
2022-12-18T11:40:16.169Z,50.30
2022-12-18T11:42:48.188Z,46.20
2022-12-18T11:45:25.787Z,47.60
2022-12-18T11:47:56.602Z,53.60
2022-12-18T11:50:27.734Z,52.65
2022-12-18T11:52:59.237Z,50.90
2022-12-18T11:55:33.334Z,46.90
2022-12-18T11:58:05.648Z,45.40
2022-12-18T12:00:33.647Z,47.63
2022-12-18T12:03:23.133Z,47.15
2022-12-18T12:06:00.001Z,55.08
2022-12-18T12:08:34.912Z,46.58
2022-12-18T12:11:08.371Z,44.35
2022-12-18T12:13:43.272Z,47.97
2022-12-18T12:16:17.212Z,45.17
2022-12-18T12:18:52.491Z,43.28
2022-12-18T12:21:25.483Z,49.65
2022-12-18T12:23:56.080Z,44.85
2022-12-18T12:26:27.135Z,46.47
2022-12-18T12:29:15.450Z,57.10
2022-12-18T12:31:53.791Z,63.78
2022-12-18T12:34:24.150Z,79.88
2022-12-18T12:37:02.845Z,72.78
2022-12-18T12:39:32.824Z,60.35
2022-12-18T12:42:18.718Z,68.03
2022-12-18T12:44:55.678Z,54.22
2022-12-18T12:47:27.621Z,44.63
2022-12-18T12:49:56.561Z,38.47
2022-12-18T12:52:29.819Z,48.08
2022-12-18T12:55:01.535Z,36.80
2022-12-18T12:57:33.008Z,41.20
2022-12-18T13:00:04.223Z,42.88
2022-12-18T13:02:35.284Z,43.72
2022-12-18T13:05:05.902Z,43.95
2022-12-18T13:07:37.932Z,37.53
2022-12-18T13:10:15.916Z,42.38
2022-12-18T13:12:59.913Z,53.13
2022-12-18T13:18:06.910Z,36.92
2022-12-18T13:20:35.692Z,47.28
2022-12-18T13:23:21.801Z,49.38
2022-12-18T13:25:50.603Z,55.00
2022-12-18T13:28:19.318Z,39.72
2022-12-18T13:30:48.867Z,51.08
2022-12-18T13:33:56.371Z,40.88
2022-12-18T13:36:31.339Z,48.05
2022-12-18T13:39:19.780Z,44.75
2022-12-18T13:41:53.520Z,45.35
2022-12-18T13:44:32.573Z,55.90
2022-12-18T13:47:03.719Z,50.88
2022-12-18T13:49:38.379Z,51.95
2022-12-18T13:52:17.972Z,50.70
2022-12-18T13:54:47.042Z,47.53
2022-12-18T13:57:28.700Z,58.40
2022-12-18T13:59:57.142Z,52.45
2022-12-18T14:02:27.273Z,77.13
2022-12-18T14:04:56.305Z,66.65
2022-12-18T14:07:26.076Z,80.00
2022-12-18T14:10:06.430Z,77.95
2022-12-18T14:13:00.868Z,78.35
2022-12-18T14:15:34.260Z,77.65
2022-12-18T14:18:04.619Z,74.80
2022-12-18T14:20:33.737Z,80.72
2022-12-18T14:23:02.163Z,90.28
2022-12-18T14:25:30.793Z,91.50
2022-12-18T14:28:10.907Z,71.93
2022-12-18T14:30:39.960Z,81.38
2022-12-18T14:33:11.457Z,79.85
2022-12-18T14:35:40.926Z,77.55
2022-12-18T14:38:25.585Z,67.65
2022-12-18T14:41:00.320Z,73.72
2022-12-18T14:43:30.400Z,64.20
2022-12-18T14:45:59.058Z,61.25
2022-12-18T14:48:35.368Z,49.20
2022-12-18T14:51:04.670Z,46.20
2022-12-18T14:53:37.478Z,49.70
2022-12-18T14:56:12.496Z,48.33
2022-12-18T14:58:46.137Z,71.57
2022-12-18T15:01:19.765Z,83.55
2022-12-18T15:03:48.196Z,67.97
2022-12-18T15:06:20.152Z,68.28
2022-12-18T15:08:48.996Z,74.47
2022-12-18T15:11:30.195Z,76.95
2022-12-18T15:14:02.222Z,76.20
2022-12-18T15:16:30.306Z,79.28
2022-12-18T15:18:58.222Z,86.70
2022-12-18T15:21:26.282Z,91.65
2022-12-18T15:23:54.504Z,84.78
2022-12-18T15:26:23.227Z,94.47
2022-12-18T15:28:52.192Z,87.75
2022-12-18T15:31:36.458Z,76.97
2022-12-18T15:34:14.891Z,79.63
2022-12-18T15:36:43.386Z,81.13
2022-12-18T15:39:13.863Z,89.18
2022-12-18T15:42:01.822Z,76.20
2022-12-18T15:44:28.800Z,74.25
2022-12-18T15:46:58.370Z,73.35
2022-12-18T15:49:26.351Z,87.85
2022-12-18T15:51:55.800Z,69.40
2022-12-18T15:54:44.556Z,62.95
2022-12-18T15:57:24.602Z,64.47
2022-12-18T15:59:53.612Z,72.03
2022-12-18T16:02:24.595Z,65.00
2022-12-18T16:04:53.494Z,59.55
2022-12-18T16:07:25.502Z,63.92
2022-12-18T16:09:55.471Z,79.35
2022-12-18T16:12:26.175Z,75.05
2022-12-18T16:14:54.213Z,59.08
2022-12-18T16:17:23.453Z,52.17
2022-12-18T16:19:51.539Z,48.65
2022-12-18T16:22:23.651Z,60.55
2022-12-18T16:24:51.823Z,56.38
2022-12-18T16:27:20.167Z,55.58
2022-12-18T16:29:48.114Z,60.67
2022-12-18T16:32:17.709Z,66.05
2022-12-18T16:34:48.067Z,71.57
2022-12-18T16:37:17.467Z,75.35
2022-12-18T16:39:45.764Z,79.53
2022-12-18T16:42:17.662Z,61.33
2022-12-18T16:44:46.022Z,58.00
2022-12-18T16:47:15.407Z,53.90
2022-12-18T16:49:45.230Z,51.83
2022-12-18T16:52:14.818Z,53.20
2022-12-18T16:54:42.905Z,49.80
2022-12-18T16:57:11.245Z,45.92
2022-12-18T16:59:39.156Z,46.72
2022-12-18T17:02:07.574Z,49.78
2022-12-18T17:04:35.957Z,48.63
2022-12-18T17:07:04.683Z,50.05
2022-12-18T17:09:33.882Z,50.28
2022-12-18T17:12:04.436Z,45.63
2022-12-18T17:14:33.074Z,79.18
2022-12-18T17:17:20.897Z,72.55
2022-12-18T17:19:49.194Z,48.45
2022-12-18T17:22:17.114Z,44.53
2022-12-18T17:24:47.180Z,44.70
2022-12-18T17:27:15.399Z,42.78
2022-12-18T17:29:48.015Z,50.90
2022-12-18T17:32:16.429Z,62.88
2022-12-18T17:34:44.638Z,50.38
2022-12-18T17:37:12.505Z,55.08
2022-12-18T17:39:40.698Z,72.20
2022-12-18T17:42:10.918Z,47.25
2022-12-18T17:44:43.920Z,47.90
2022-12-18T17:47:13.161Z,51.53
2022-12-18T17:49:41.424Z,41.13
2022-12-18T17:52:09.560Z,51.50
2022-12-18T17:54:39.753Z,52.40
2022-12-18T17:57:07.865Z,46.42
2022-12-18T17:59:37.748Z,54.45
2022-12-18T18:02:07.029Z,49.17
2022-12-18T18:04:35.405Z,58.55
2022-12-18T18:07:03.274Z,63.03
2022-12-18T18:09:31.366Z,45.63
2022-12-18T18:12:17.403Z,56.47
2022-12-18T18:14:47.238Z,71.35
2022-12-18T18:17:15.583Z,68.15
2022-12-18T18:19:44.214Z,61.40
2022-12-18T18:22:17.637Z,66.53
2022-12-18T18:24:46.765Z,59.83
2022-12-18T18:27:15.323Z,64.55
2022-12-18T18:29:43.204Z,58.30
2022-12-18T18:32:12.459Z,50.22
2022-12-18T18:34:41.830Z,49.67
2022-12-18T18:37:10.728Z,52.55
2022-12-18T18:39:39.399Z,43.38
2022-12-18T18:42:08.190Z,51.67
2022-12-18T18:44:36.355Z,44.88
2022-12-18T18:47:06.930Z,48.60
2022-12-18T18:49:39.022Z,59.22
2022-12-18T18:52:08.495Z,79.13
2022-12-18T18:54:36.381Z,80.32
2022-12-18T18:57:20.506Z,65.40
2022-12-18T18:59:49.024Z,66.43
2022-12-18T19:02:17.680Z,78.75
2022-12-18T19:04:47.356Z,84.55
2022-12-18T19:07:23.907Z,83.93
2022-12-18T19:10:04.130Z,77.22
2022-12-18T19:12:51.558Z,81.40
2022-12-18T19:15:19.482Z,90.05
2022-12-18T19:17:47.942Z,116.13
2022-12-18T19:20:18.231Z,138.80
2022-12-18T19:22:51.989Z,134.50
2022-12-18T19:25:29.725Z,115.50
2022-12-18T19:28:09.452Z,100.03
2022-12-18T19:30:51.007Z,103.10
2022-12-18T19:36:17.075Z,97.18
2022-12-18T19:38:46.207Z,78.53
2022-12-18T19:41:14.629Z,79.97
2022-12-18T19:43:43.061Z,66.07
2022-12-18T19:46:12.906Z,68.95
2022-12-18T19:48:41.649Z,60.47
2022-12-18T19:51:10.367Z,56.72
2022-12-18T19:53:39.676Z,54.47
2022-12-18T19:56:07.985Z,47.80
2022-12-18T19:58:35.982Z,42.08
2022-12-18T20:01:04.688Z,48.15
2022-12-18T20:03:35.242Z,38.20
2022-12-18T20:06:10.830Z,72.97
2022-12-18T20:08:41.616Z,80.63
2022-12-18T20:11:09.630Z,92.28
2022-12-18T20:13:37.565Z,80.28
2022-12-18T20:16:06.297Z,75.63
2022-12-18T20:18:34.795Z,90.78
2022-12-18T20:21:03.459Z,63.15
2022-12-18T20:23:37.285Z,79.22
2022-12-18T20:26:07.784Z,86.38
2022-12-18T20:28:37.030Z,88.22
2022-12-18T20:31:08.437Z,84.20
2022-12-18T20:33:39.397Z,77.10
2022-12-18T20:36:09.293Z,74.78
2022-12-18T20:38:39.376Z,67.53
2022-12-18T20:41:10.866Z,69.45
2022-12-18T20:43:39.673Z,74.13
2022-12-18T20:46:09.213Z,71.38
2022-12-18T20:48:37.486Z,65.07
2022-12-18T20:51:09.250Z,66.70
2022-12-18T20:53:38.825Z,57.35
2022-12-18T20:56:12.957Z,66.97
2022-12-18T20:58:41.133Z,51.42
2022-12-18T21:01:10.842Z,65.38
2022-12-18T21:03:41.764Z,60.00
2022-12-18T21:06:10.454Z,57.45
2022-12-18T21:08:38.493Z,63.85
2022-12-18T21:11:35.421Z,51.85
2022-12-18T21:14:02.773Z,42.15
